Time;durP1;ratioP1;P1;durP2;ratioP2;P2;SDS_P1;SDS_P2;PMS_P1;PMS_P2;Temp;Humidity;BMP_temperature;BMP_pressure;BME280_temperature;BME280_humidity;BME280_pressure;Samples;Min_cycle;Max_cycle;Signal;HPM_P1;HPM_P2
2023/01/09 00:01:48;;;;;;;3.03;1.58;;;6.50;98.00;;;;;;4973042;28;20038;-69
2023/01/09 00:04:14;;;;;;;3.60;1.63;;;6.50;98.00;;;;;;4970856;28;20027;-68
2023/01/09 00:06:42;;;;;;;2.60;1.40;;;6.50;98.00;;;;;;4977529;28;20034;-69
2023/01/09 00:09:08;;;;;;;2.53;1.30;;;6.50;97.80;;;;;;4974722;28;20033;-68
2023/01/09 00:11:34;;;;;;;2.88;1.60;;;6.40;97.70;;;;;;4970818;28;20034;-69
2023/01/09 00:13:59;;;;;;;2.53;1.40;;;6.30;96.00;;;;;;4970261;28;20422;-67
2023/01/09 00:16:25;;;;;;;2.15;1.30;;;6.30;97.20;;;;;;4971875;28;20041;-69
2023/01/09 00:18:52;;;;;;;2.78;1.35;;;6.40;98.00;;;;;;4970517;28;20052;-69
2023/01/09 00:21:18;;;;;;;2.17;1.30;;;6.40;98.00;;;;;;4969450;28;20162;-68
2023/01/09 00:23:44;;;;;;;3.08;1.58;;;6.40;98.00;;;;;;4975152;28;20148;-68
2023/01/09 00:26:18;;;;;;;3.15;1.60;;;6.40;98.00;;;;;;4975044;28;20046;-68
2023/01/09 00:28:45;;;;;;;2.70;1.30;;;6.40;97.50;;;;;;4973817;28;20073;-71
2023/01/09 00:31:11;;;;;;;2.55;1.40;;;6.40;98.00;;;;;;4986674;28;20034;-68
2023/01/09 00:33:44;;;;;;;3.13;1.38;;;6.50;98.00;;;;;;4969169;28;20092;-68
2023/01/09 00:36:11;;;;;;;2.30;1.33;;;6.60;98.00;;;;;;4969455;28;20034;-67
2023/01/09 00:38:37;;;;;;;3.72;1.50;;;6.70;98.00;;;;;;4970849;28;20027;-69
2023/01/09 00:41:06;;;;;;;2.33;1.30;;;6.80;98.00;;;;;;4974825;28;20415;-68
2023/01/09 00:43:37;;;;;;;2.55;1.35;;;6.80;98.00;;;;;;4971540;28;20047;-68
2023/01/09 00:46:05;;;;;;;3.13;1.40;;;6.80;98.00;;;;;;4974390;28;20185;-68
2023/01/09 00:48:32;;;;;;;2.30;1.33;;;6.80;98.00;;;;;;4971369;28;20423;-68
2023/01/09 00:50:58;;;;;;;1.95;1.20;;;6.80;98.00;;;;;;4976858;28;20042;-68
2023/01/09 00:53:31;;;;;;;2.10;1.10;;;6.80;98.00;;;;;;4976586;28;20030;-68
2023/01/09 00:56:01;;;;;;;2.33;1.30;;;6.80;98.00;;;;;;4980502;28;20026;-67
2023/01/09 00:58:27;;;;;;;2.33;1.33;;;6.90;98.00;;;;;;4977034;28;20472;-68
2023/01/09 01:00:53;;;;;;;2.42;1.10;;;6.80;98.00;;;;;;4976194;28;20034;-68
2023/01/09 01:03:18;;;;;;;2.05;1.17;;;6.80;98.00;;;;;;4974901;28;20035;-67
2023/01/09 01:08:30;;;;;;;;;;;7.00;98.00;;;;;;4980442;28;20045;-68
2023/01/09 01:10:55;;;;;;;2.22;1.23;;;7.10;98.00;;;;;;4979910;28;19925;-68
2023/01/09 01:13:21;;;;;;;1.98;1.10;;;7.10;98.00;;;;;;4977496;28;20038;-68
2023/01/09 01:15:49;;;;;;;2.45;1.27;;;7.20;98.00;;;;;;4975760;28;20069;-68
2023/01/09 01:18:15;;;;;;;3.08;1.08;;;7.20;98.00;;;;;;4975197;28;20228;-68
2023/01/09 01:20:47;;;;;;;1.65;0.90;;;7.20;98.00;;;;;;4975363;28;21598;-68
2023/01/09 01:23:16;;;;;;;1.40;0.95;;;7.20;98.00;;;;;;4974571;28;20088;-68
2023/01/09 01:25:41;;;;;;;1.60;0.98;;;7.10;98.00;;;;;;4975815;28;20038;-69
2023/01/09 01:28:08;;;;;;;5.28;0.98;;;7.00;98.00;;;;;;4981277;28;20031;-68
2023/01/09 01:30:39;;;;;;;1.60;0.93;;;7.00;98.00;;;;;;4976152;28;20030;-68
2023/01/09 01:33:05;;;;;;;1.40;0.90;;;7.00;98.00;;;;;;4975995;28;20031;-69
2023/01/09 01:35:30;;;;;;;1.90;0.90;;;7.00;98.00;;;;;;4975994;28;20041;-69
2023/01/09 01:37:56;;;;;;;1.50;0.90;;;7.10;98.00;;;;;;4975695;28;20037;-68
2023/01/09 01:40:22;;;;;;;1.40;0.90;;;7.10;98.00;;;;;;4981983;28;20223;-68
2023/01/09 01:42:50;;;;;;;1.40;0.85;;;7.00;98.00;;;;;;4975445;28;20065;-68
2023/01/09 01:45:23;;;;;;;0.90;0.80;;;7.00;98.00;;;;;;4975397;28;20084;-69
2023/01/09 01:48:00;;;;;;;1.65;1.05;;;7.10;98.00;;;;;;4974877;28;20074;-68
2023/01/09 01:50:35;;;;;;;1.45;0.80;;;7.10;98.00;;;;;;4975001;28;20058;-69
2023/01/09 01:53:10;;;;;;;1.65;0.90;;;7.10;98.00;;;;;;4975042;28;20073;-69
2023/01/09 01:55:40;;;;;;;1.90;0.90;;;7.10;98.00;;;;;;4983323;28;20049;-69
2023/01/09 01:58:09;;;;;;;1.52;0.93;;;7.00;98.00;;;;;;4983392;28;20088;-69
2023/01/09 02:00:40;;;;;;;1.65;0.90;;;7.00;98.00;;;;;;4974247;28;20054;-69
2023/01/09 02:03:06;;;;;;;1.50;0.90;;;7.10;98.00;;;;;;4982094;28;20057;-69
2023/01/09 02:05:32;;;;;;;0.90;0.80;;;7.00;98.00;;;;;;4975485;28;20641;-69
2023/01/09 02:07:58;;;;;;;1.75;1.08;;;6.90;96.70;;;;;;4987773;28;20023;-69
2023/01/09 02:10:24;;;;;;;3.47;1.15;;;6.70;94.40;;;;;;4988574;28;20050;-70
2023/01/09 02:12:50;;;;;;;2.90;1.30;;;6.60;92.50;;;;;;4975559;28;20030;-69
2023/01/09 02:15:17;;;;;;;3.63;1.80;;;6.50;90.80;;;;;;4981336;28;20027;-70
2023/01/09 02:18:02;;;;;;;3.72;1.70;;;6.40;88.90;;;;;;4974760;28;20044;-69
2023/01/09 02:20:56;;;;;;;3.65;1.70;;;6.20;86.00;;;;;;4993345;28;20026;-69
2023/01/09 02:24:03;;;;;;;3.55;1.80;;;6.20;84.00;;;;;;4978857;28;20725;-68
2023/01/09 02:27:13;;;;;;;3.33;1.88;;;6.10;81.60;;;;;;4970929;28;20065;-69
2023/01/09 02:30:15;;;;;;;5.22;2.65;;;6.10;79.40;;;;;;5000870;28;20030;-69
2023/01/09 02:33:09;;;;;;;3.70;1.92;;;6.00;78.10;;;;;;4976779;28;20038;-70
2023/01/09 02:35:49;;;;;;;3.03;1.60;;;6.10;76.70;;;;;;4993954;28;20407;-69
2023/01/09 02:38:38;;;;;;;4.20;2.20;;;6.00;75.60;;;;;;4983298;28;20120;-68
2023/01/09 02:41:49;;;;;;;6.00;2.53;;;6.00;74.90;;;;;;4979428;28;20837;-71
2023/01/09 02:44:26;;;;;;;7.07;2.28;;;6.00;74.50;;;;;;4974054;28;20462;-69
2023/01/09 02:47:05;;;;;;;5.35;2.70;;;6.00;73.60;;;;;;5003035;28;20632;-69
2023/01/09 02:49:54;;;;;;;5.03;3.20;;;6.00;72.60;;;;;;4995963;28;20033;-69
2023/01/09 02:53:04;;;;;;;6.50;3.45;;;6.00;72.40;;;;;;4993620;28;20520;-69
2023/01/09 02:55:51;;;;;;;5.15;3.15;;;6.00;71.20;;;;;;5002321;28;20108;-70
2023/01/09 02:58:49;;;;;;;4.82;2.00;;;5.90;72.40;;;;;;5003816;28;20029;-69
2023/01/09 03:01:20;;;;;;;3.13;1.33;;;5.80;72.30;;;;;;4995657;28;20049;-69
2023/01/09 03:04:21;;;;;;;2.92;1.00;;;5.60;74.90;;;;;;4979385;28;20041;-68
2023/01/09 03:06:53;;;;;;;2.45;1.08;;;5.40;78.10;;;;;;4992328;28;20096;-70
2023/01/09 03:09:22;;;;;;;3.47;1.17;;;5.30;78.00;;;;;;4993030;28;20427;-69
2023/01/09 03:12:00;;;;;;;2.00;1.00;;;5.20;76.90;;;;;;4995549;28;20088;-69
2023/01/09 03:14:29;;;;;;;2.15;0.80;;;5.20;76.50;;;;;;4978068;28;20065;-69
2023/01/09 03:17:02;;;;;;;1.30;0.80;;;5.20;75.70;;;;;;4993656;28;20049;-69
2023/01/09 03:19:30;;;;;;;1.10;0.70;;;5.10;76.00;;;;;;4981552;28;20486;-70
2023/01/09 03:22:00;;;;;;;0.70;0.70;;;5.10;76.70;;;;;;4946609;28;20058;-68
2023/01/09 03:24:25;;;;;;;1.40;0.80;;;5.00;77.70;;;;;;4966221;28;20384;-69
2023/01/09 03:26:53;;;;;;;1.30;0.70;;;5.00;80.80;;;;;;4966662;28;20077;-69
2023/01/09 03:29:18;;;;;;;0.88;0.70;;;5.00;81.40;;;;;;4973358;28;20022;-70
2023/01/09 03:31:44;;;;;;;1.35;0.70;;;5.00;81.20;;;;;;4966521;28;20045;-69
2023/01/09 03:34:09;;;;;;;1.58;0.70;;;5.00;83.80;;;;;;4966806;28;20344;-69
2023/01/09 03:36:35;;;;;;;0.60;0.60;;;5.00;84.50;;;;;;4965657;28;20394;-70
2023/01/09 03:39:01;;;;;;;1.55;0.80;;;5.00;85.60;;;;;;4948911;28;20081;-68
2023/01/09 03:41:26;;;;;;;1.58;0.70;;;5.00;87.30;;;;;;4966713;28;20148;-69
2023/01/09 03:43:52;;;;;;;0.60;0.60;;;5.10;89.90;;;;;;4967965;28;20034;-69
2023/01/09 03:46:17;;;;;;;0.95;0.70;;;5.10;89.90;;;;;;4966644;28;20427;-68
2023/01/09 03:48:43;;;;;;;1.73;0.60;;;5.10;89.00;;;;;;4965573;28;20323;-68
2023/01/09 03:51:08;;;;;;;0.70;0.60;;;5.10;89.80;;;;;;4963434;28;21576;-68
2023/01/09 03:53:34;;;;;;;0.90;0.70;;;5.10;89.10;;;;;;4966511;28;20034;-70
2023/01/09 03:55:59;;;;;;;1.00;0.90;;;5.10;88.30;;;;;;4998320;28;20112;-68
2023/01/09 03:58:26;;;;;;;0.82;0.80;;;5.00;88.40;;;;;;4994369;28;20015;-68
2023/01/09 04:00:56;;;;;;;0.70;0.70;;;5.10;88.00;;;;;;4968792;28;20038;-69
2023/01/09 04:03:22;;;;;;;0.75;0.70;;;5.20;89.00;;;;;;4963684;28;20097;-68
2023/01/09 04:05:48;;;;;;;1.10;0.77;;;5.20;88.50;;;;;;4952022;28;20034;-68
2023/01/09 04:08:15;;;;;;;0.80;0.70;;;5.30;90.40;;;;;;4965604;28;20108;-68
2023/01/09 04:10:44;;;;;;;0.70;0.70;;;5.30;90.20;;;;;;4979797;28;20093;-68
2023/01/09 04:13:09;;;;;;;0.88;0.70;;;5.30;90.00;;;;;;4997217;28;20049;-68
2023/01/09 04:15:35;;;;;;;1.52;0.90;;;5.30;89.30;;;;;;5012140;28;20058;-68
2023/01/09 04:18:02;;;;;;;1.13;0.70;;;5.30;89.50;;;;;;4992203;28;20069;-68
2023/01/09 04:20:28;;;;;;;1.98;0.80;;;5.30;89.20;;;;;;4992859;28;20489;-68
2023/01/09 04:22:53;;;;;;;2.22;0.80;;;5.30;89.20;;;;;;4991665;28;20034;-69
2023/01/09 04:25:21;;;;;;;1.13;0.80;;;5.30;87.30;;;;;;4992228;28;20413;-69
2023/01/09 04:27:47;;;;;;;1.45;0.90;;;5.20;87.50;;;;;;5001501;28;20052;-69
2023/01/09 04:30:13;;;;;;;1.33;0.80;;;5.20;90.40;;;;;;5014429;28;20032;-69
2023/01/09 04:32:39;;;;;;;1.77;0.90;;;5.10;88.10;;;;;;4994070;28;20026;-69
2023/01/09 04:35:05;;;;;;;2.05;0.90;;;5.00;89.80;;;;;;5014763;28;20026;-68
2023/01/09 04:37:30;;;;;;;5.10;1.00;;;4.90;87.90;;;;;;5014831;28;20030;-68
2023/01/09 04:39:56;;;;;;;2.58;1.52;;;4.70;85.40;;;;;;5015260;28;20354;-68
2023/01/09 04:42:22;;;;;;;3.10;1.40;;;4.60;80.80;;;;;;5004134;28;20069;-68
2023/01/09 04:44:47;;;;;;;3.00;1.50;;;4.60;76.80;;;;;;5019239;28;20037;-68
2023/01/09 04:47:13;;;;;;;3.90;1.70;;;4.60;76.70;;;;;;5017059;28;20360;-68
2023/01/09 04:49:39;;;;;;;3.20;0.90;;;4.60;75.90;;;;;;5014192;28;20104;-70
2023/01/09 04:52:04;;;;;;;2.83;1.00;;;4.40;84.60;;;;;;5014886;28;20033;-69
2023/01/09 04:54:30;;;;;;;2.63;1.10;;;4.40;84.70;;;;;;5017527;28;20373;-68
2023/01/09 04:56:55;;;;;;;2.50;1.20;;;4.30;84.20;;;;;;5013212;28;20030;-69
2023/01/09 04:59:21;;;;;;;1.77;1.00;;;4.20;84.70;;;;;;5021405;28;20021;-69
2023/01/09 05:01:47;;;;;;;1.10;0.90;;;4.10;88.70;;;;;;5006983;28;20324;-68
2023/01/09 05:04:13;;;;;;;3.17;1.40;;;4.10;88.30;;;;;;5017698;28;20034;-69
2023/01/09 05:06:39;;;;;;;3.70;1.95;;;4.00;88.10;;;;;;5019807;28;20032;-68
2023/01/09 05:09:04;;;;;;;3.13;1.52;;;3.90;88.10;;;;;;5018526;28;20030;-67
2023/01/09 05:11:30;;;;;;;1.35;1.00;;;3.80;87.10;;;;;;5013910;28;20052;-68
2023/01/09 05:13:55;;;;;;;2.35;1.25;;;3.70;86.80;;;;;;5035935;28;20021;-67
2023/01/09 05:16:21;;;;;;;2.40;1.40;;;3.60;86.20;;;;;;5018427;28;20036;-68
2023/01/09 05:18:47;;;;;;;2.50;1.33;;;3.60;83.30;;;;;;5023297;28;20036;-68
2023/01/09 05:21:13;;;;;;;1.80;1.00;;;3.60;83.10;;;;;;5009100;28;20022;-67
2023/01/09 05:23:42;;;;;;;2.47;1.27;;;3.70;82.60;;;;;;5003259;28;20033;-67
2023/01/09 05:26:07;;;;;;;1.92;1.10;;;3.70;81.40;;;;;;5015742;28;20030;-67
2023/01/09 05:28:33;;;;;;;1.73;1.02;;;3.80;81.90;;;;;;5013565;28;20030;-68
2023/01/09 05:30:59;;;;;;;1.75;1.00;;;3.80;83.10;;;;;;5005229;28;20030;-68
2023/01/09 05:33:24;;;;;;;3.67;1.30;;;3.80;85.10;;;;;;5011659;28;20049;-67
2023/01/09 05:35:53;;;;;;;2.55;1.20;;;3.90;85.40;;;;;;5030531;28;20026;-67
2023/01/09 05:38:18;;;;;;;2.88;1.33;;;3.90;85.30;;;;;;5013971;28;20026;-68
2023/01/09 05:40:44;;;;;;;2.25;1.10;;;3.90;86.00;;;;;;5018227;28;20026;-67
2023/01/09 05:43:09;;;;;;;1.98;1.00;;;3.90;86.70;;;;;;5018308;28;20030;-68
2023/01/09 05:45:35;;;;;;;2.00;1.00;;;3.80;86.30;;;;;;5018035;28;20098;-68
2023/01/09 05:48:00;;;;;;;1.92;1.10;;;3.90;84.90;;;;;;5017308;28;20025;-68
2023/01/09 05:50:26;;;;;;;2.20;1.20;;;3.90;85.00;;;;;;5015877;28;20030;-68
2023/01/09 05:52:51;;;;;;;5.55;1.80;;;3.90;84.10;;;;;;5008440;28;20038;-67
2023/01/09 05:55:17;;;;;;;2.97;1.60;;;3.80;85.80;;;;;;5016705;28;20022;-68
2023/01/09 05:57:43;;;;;;;2.42;1.10;;;3.80;88.80;;;;;;5016889;28;20022;-68
2023/01/09 06:00:09;;;;;;;2.13;1.15;;;3.80;90.00;;;;;;5017865;28;20022;-68
2023/01/09 06:02:35;;;;;;;1.83;1.20;;;3.70;89.80;;;;;;5017796;28;20484;-68
2023/01/09 06:05:00;;;;;;;2.85;1.27;;;3.70;92.00;;;;;;5018055;28;20029;-68
2023/01/09 06:07:26;;;;;;;3.03;1.27;;;3.60;91.60;;;;;;5016696;28;20026;-68
2023/01/09 06:09:51;;;;;;;3.00;1.40;;;3.50;91.10;;;;;;5017532;28;20120;-68
2023/01/09 06:12:17;;;;;;;7.97;1.75;;;3.50;89.70;;;;;;5017133;28;20038;-68
2023/01/09 06:14:42;;;;;;;7.50;2.78;;;3.50;88.60;;;;;;5015387;28;20029;-68
2023/01/09 06:17:09;;;;;;;5.78;1.65;;;3.50;92.70;;;;;;5017404;28;20022;-68
2023/01/09 06:19:35;;;;;;;2.90;1.20;;;3.40;91.70;;;;;;5000038;28;20481;-68
2023/01/09 06:22:00;;;;;;;4.30;1.60;;;3.40;92.00;;;;;;5015587;28;20102;-68
2023/01/09 06:24:26;;;;;;;5.43;2.17;;;3.50;93.60;;;;;;5017565;28;20065;-68
2023/01/09 06:26:52;;;;;;;5.35;2.10;;;3.50;94.00;;;;;;5016987;28;20026;-68
2023/01/09 06:29:17;;;;;;;6.72;1.70;;;3.40;94.90;;;;;;5005175;28;20031;-68
2023/01/09 06:31:43;;;;;;;4.20;1.42;;;3.30;94.80;;;;;;5013786;28;20056;-68
2023/01/09 06:34:08;;;;;;;15.68;5.97;;;3.30;97.80;;;;;;5014130;28;20054;-68
2023/01/09 06:36:34;;;;;;;7.25;2.30;;;3.40;98.00;;;;;;5016112;28;20311;-68
2023/01/09 06:38:59;;;;;;;6.90;1.40;;;3.40;98.00;;;;;;5017059;28;20034;-68
2023/01/09 06:41:25;;;;;;;5.60;1.70;;;3.30;98.00;;;;;;4999200;28;20521;-68
2023/01/09 06:43:51;;;;;;;5.60;1.52;;;3.30;98.00;;;;;;5017193;28;20319;-68
2023/01/09 06:46:16;;;;;;;4.78;1.50;;;3.30;98.00;;;;;;5016953;28;20423;-68
2023/01/09 06:48:42;;;;;;;4.72;1.50;;;3.20;98.00;;;;;;5017053;28;20033;-68
2023/01/09 06:51:07;;;;;;;6.60;1.85;;;3.30;98.00;;;;;;4998508;28;20028;-68
2023/01/09 06:53:34;;;;;;;6.68;1.73;;;3.30;98.00;;;;;;5013706;28;20115;-68
2023/01/09 06:56:01;;;;;;;4.65;1.38;;;3.20;98.00;;;;;;4999696;28;20080;-68
2023/01/09 06:58:27;;;;;;;5.18;1.65;;;3.20;98.00;;;;;;5015535;28;20018;-68
2023/01/09 07:00:54;;;;;;;4.32;1.45;;;3.20;98.00;;;;;;5016631;28;20048;-67
2023/01/09 07:03:21;;;;;;;4.63;1.50;;;3.30;98.00;;;;;;5016339;28;20362;-68
2023/01/09 07:05:47;;;;;;;3.65;1.20;;;3.40;98.00;;;;;;5013232;28;20018;-68
2023/01/09 07:08:13;;;;;;;3.63;1.73;;;3.40;98.00;;;;;;5015437;28;20048;-68
2023/01/09 07:10:40;;;;;;;5.10;1.30;;;3.50;98.00;;;;;;5029197;28;20045;-68
2023/01/09 07:13:06;;;;;;;7.18;1.45;;;3.50;98.00;;;;;;5018715;28;20029;-68
2023/01/09 07:15:31;;;;;;;3.78;1.40;;;3.50;98.00;;;;;;5036194;28;20070;-67
2023/01/09 07:17:57;;;;;;;6.60;1.70;;;3.60;98.00;;;;;;5036438;28;20026;-68
2023/01/09 07:20:25;;;;;;;2.75;1.13;;;3.70;98.00;;;;;;5021578;28;20022;-67
2023/01/09 07:22:51;;;;;;;5.38;1.30;;;3.70;98.00;;;;;;5011081;28;20160;-68
2023/01/09 07:25:17;;;;;;;4.78;1.20;;;3.80;98.00;;;;;;5031900;28;20421;-67
2023/01/09 07:27:42;;;;;;;5.50;1.90;;;3.80;98.00;;;;;;5034099;28;20361;-67
2023/01/09 07:30:08;;;;;;;7.60;1.70;;;3.80;98.00;;;;;;5016436;28;20419;-67
2023/01/09 07:32:34;;;;;;;7.55;1.38;;;3.90;98.00;;;;;;4996760;28;20057;-67
2023/01/09 07:34:59;;;;;;;4.32;1.33;;;4.10;98.00;;;;;;5024614;28;20036;-66
2023/01/09 07:37:25;;;;;;;6.15;1.75;;;4.10;98.00;;;;;;5013330;28;20031;-66
2023/01/09 07:39:51;;;;;;;4.05;1.23;;;4.10;98.00;;;;;;5016375;28;20105;-68
2023/01/09 07:42:16;;;;;;;4.28;1.20;;;4.20;98.00;;;;;;5015404;28;20048;-68
2023/01/09 07:44:44;;;;;;;5.50;1.50;;;4.20;98.00;;;;;;5015254;28;20054;-68
2023/01/09 07:47:10;;;;;;;7.22;1.48;;;4.30;98.00;;;;;;4998822;28;20087;-68
2023/01/09 07:49:36;;;;;;;7.38;1.30;;;4.40;98.00;;;;;;5015381;28;20018;-68
2023/01/09 07:52:01;;;;;;;7.00;1.55;;;4.40;98.00;;;;;;5013594;28;20423;-68
2023/01/09 07:54:27;;;;;;;6.07;1.63;;;4.40;98.00;;;;;;5014949;28;20065;-68
2023/01/09 07:56:52;;;;;;;8.25;2.03;;;4.30;98.00;;;;;;5015589;28;20022;-67
2023/01/09 07:59:18;;;;;;;4.97;1.35;;;4.30;98.00;;;;;;5015315;28;20025;-68
2023/01/09 08:01:44;;;;;;;10.25;1.63;;;4.30;98.00;;;;;;5020685;28;20021;-68
2023/01/09 08:04:09;;;;;;;4.90;1.20;;;4.30;98.00;;;;;;5035399;28;20037;-68
2023/01/09 08:06:35;;;;;;;5.35;1.70;;;4.30;98.00;;;;;;5014937;28;20030;-69
2023/01/09 08:09:00;;;;;;;6.00;1.88;;;4.30;98.00;;;;;;5014774;28;20420;-68
2023/01/09 08:11:26;;;;;;;6.78;1.30;;;4.30;98.00;;;;;;4993950;28;20478;-68
2023/01/09 08:13:51;;;;;;;4.68;1.40;;;4.40;98.00;;;;;;5015115;28;20253;-68
2023/01/09 08:16:17;;;;;;;5.72;1.42;;;4.30;98.00;;;;;;5019171;28;20026;-68
2023/01/09 08:18:43;;;;;;;7.93;1.50;;;4.40;98.00;;;;;;5019055;28;20073;-68
2023/01/09 08:21:10;;;;;;;7.72;1.63;;;4.40;98.00;;;;;;5018032;28;20474;-68
2023/01/09 08:23:36;;;;;;;5.57;1.45;;;4.40;98.00;;;;;;5001902;28;20327;-68
2023/01/09 08:26:02;;;;;;;6.50;1.40;;;4.30;98.00;;;;;;5018300;28;20415;-68
2023/01/09 08:28:27;;;;;;;5.03;1.40;;;4.30;98.00;;;;;;4987960;28;20030;-68
2023/01/09 08:30:53;;;;;;;5.15;1.20;;;4.40;98.00;;;;;;5017023;28;20060;-68
2023/01/09 08:33:21;;;;;;;4.78;1.27;;;4.50;98.00;;;;;;5019595;28;20069;-69
2023/01/09 08:35:47;;;;;;;6.65;1.92;;;4.60;98.00;;;;;;5019802;28;20101;-68
2023/01/09 08:38:12;;;;;;;7.32;1.48;;;4.60;97.80;;;;;;5018417;28;20140;-69
2023/01/09 08:40:38;;;;;;;6.88;1.98;;;4.60;97.80;;;;;;5019024;28;20049;-68
2023/01/09 08:47:04;;;;;;;4.28;1.52;;;4.60;97.60;;;;;;5018903;28;20343;-68
2023/01/09 08:48:47;;;;;;;8.15;1.40;;;4.80;97.60;;;;;;5018816;28;20370;-68
2023/01/09 08:51:13;;;;;;;9.40;1.90;;;5.00;97.00;;;;;;4999748;28;20065;-68
2023/01/09 08:53:38;;;;;;;5.22;1.58;;;5.00;97.30;;;;;;5018235;28;20022;-69
2023/01/09 08:56:04;;;;;;;5.40;1.40;;;5.10;96.70;;;;;;5017642;28;20022;-69
2023/01/09 08:58:30;;;;;;;6.90;1.40;;;5.10;96.80;;;;;;5018392;28;20485;-68
2023/01/09 09:00:57;;;;;;;7.13;1.42;;;5.20;96.20;;;;;;5019129;28;20462;-68
2023/01/09 09:03:23;;;;;;;8.52;2.38;;;5.30;95.90;;;;;;5018109;28;20065;-68
2023/01/09 09:05:49;;;;;;;6.90;1.85;;;5.40;97.00;;;;;;5019171;28;20061;-68
2023/01/09 09:08:15;;;;;;;7.05;1.58;;;5.50;96.30;;;;;;4999346;28;20022;-68
2023/01/09 09:10:40;;;;;;;5.65;1.50;;;5.50;95.90;;;;;;5019084;28;20046;-69
2023/01/09 09:13:06;;;;;;;6.65;1.45;;;5.60;95.80;;;;;;5017404;28;20037;-68
2023/01/09 09:15:33;;;;;;;4.82;1.50;;;5.60;96.00;;;;;;5018338;28;20042;-69
2023/01/09 09:18:03;;;;;;;6.35;1.40;;;5.60;95.50;;;;;;5017964;28;20022;-68
2023/01/09 09:20:32;;;;;;;6.60;1.20;;;5.50;95.50;;;;;;5017452;28;20022;-69
2023/01/09 09:22:58;;;;;;;7.85;1.50;;;5.50;95.70;;;;;;5016824;28;20030;-68
2023/01/09 09:25:24;;;;;;;9.32;1.80;;;5.40;95.60;;;;;;5018510;28;20075;-69
2023/01/09 09:27:51;;;;;;;6.38;1.98;;;5.50;95.70;;;;;;5017675;28;20034;-68
2023/01/09 09:30:18;;;;;;;6.70;1.50;;;5.50;95.00;;;;;;5001332;28;20080;-69
2023/01/09 09:32:44;;;;;;;8.38;1.90;;;5.50;95.60;;;;;;5016581;28;20026;-68
2023/01/09 09:35:10;;;;;;;9.35;2.38;;;5.60;95.20;;;;;;5018478;28;20040;-68
2023/01/09 09:37:36;;;;;;;7.43;1.75;;;5.60;94.90;;;;;;4988715;28;20022;-69
2023/01/09 09:40:02;;;;;;;6.93;1.77;;;5.50;95.40;;;;;;5018591;28;20029;-68
2023/01/09 09:45:42;;;;;;;6.45;1.30;;;5.50;95.40;;;;;;5017208;28;20445;-69
2023/01/09 09:48:36;;;;;;;9.45;1.23;;;5.50;95.70;;;;;;5018357;28;20026;-68
2023/01/09 09:51:27;;;;;;;7.68;1.58;;;5.60;96.10;;;;;;5016925;28;20021;-68
2023/01/09 09:54:26;;;;;;;8.50;1.60;;;5.80;95.20;;;;;;5015635;28;20033;-68
2023/01/09 09:56:58;;;;;;;4.80;1.73;;;6.20;94.60;;;;;;5013388;28;20088;-68
2023/01/09 09:59:26;;;;;;;7.75;1.67;;;6.60;92.20;;;;;;5018424;28;20033;-69
2023/01/09 10:02:14;;;;;;;8.30;1.33;;;6.70;91.90;;;;;;5017694;28;20101;-68
2023/01/09 10:04:44;;;;;;;6.50;1.33;;;6.50;91.40;;;;;;5003506;28;20018;-68
2023/01/09 10:07:25;;;;;;;7.15;1.35;;;6.40;92.30;;;;;;5017019;28;20033;-68
2023/01/09 10:09:59;;;;;;;5.10;1.13;;;6.40;92.90;;;;;;5017842;28;20382;-68
2023/01/09 10:12:27;;;;;;;5.03;1.30;;;6.60;92.40;;;;;;5017802;28;20022;-68
2023/01/09 10:15:05;;;;;;;6.07;1.50;;;6.60;92.00;;;;;;5017884;28;20189;-68
2023/01/09 10:17:34;;;;;;;6.20;1.58;;;6.60;92.90;;;;;;5017793;28;20021;-68
2023/01/09 10:20:17;;;;;;;5.32;1.42;;;6.60;92.30;;;;;;5017633;28;20105;-68
2023/01/09 10:23:09;;;;;;;6.07;1.45;;;6.60;91.90;;;;;;5016453;28;20069;-68
2023/01/09 10:26:07;;;;;;;6.80;1.38;;;6.60;92.40;;;;;;5017642;28;20092;-68
2023/01/09 10:29:10;;;;;;;7.32;1.40;;;6.60;91.70;;;;;;5017640;28;20061;-68
2023/01/09 10:32:03;;;;;;;4.82;1.30;;;6.60;92.30;;;;;;4997946;28;20031;-68
2023/01/09 10:34:44;;;;;;;5.93;1.60;;;6.60;91.80;;;;;;4998011;28;20030;-70
2023/01/09 10:37:19;;;;;;;8.32;1.30;;;6.50;91.70;;;;;;4996070;28;20411;-70
2023/01/09 10:39:53;;;;;;;6.80;2.22;;;6.40;91.90;;;;;;4997730;28;20034;-69
2023/01/09 10:42:30;;;;;;;8.15;1.95;;;6.40;92.20;;;;;;4981572;28;20050;-69
2023/01/09 10:45:28;;;;;;;7.10;1.60;;;6.40;91.80;;;;;;5000080;28;20026;-69
2023/01/09 10:48:04;;;;;;;4.05;1.20;;;6.40;92.00;;;;;;4992192;28;20088;-69
2023/01/09 10:50:39;;;;;;;5.68;1.40;;;6.40;91.80;;;;;;4997437;28;20018;-69
2023/01/09 10:53:17;;;;;;;6.25;1.58;;;6.50;92.50;;;;;;4996403;28;20026;-69
2023/01/09 10:55:47;;;;;;;5.53;1.40;;;6.60;91.50;;;;;;4981000;28;20022;-68
2023/01/09 10:58:17;;;;;;;5.55;1.45;;;6.60;91.40;;;;;;4997439;28;20065;-68
2023/01/09 11:00:44;;;;;;;5.80;1.50;;;6.60;91.20;;;;;;4997355;28;20329;-68
2023/01/09 11:03:11;;;;;;;6.50;1.55;;;6.50;91.20;;;;;;4997416;28;20030;-68
2023/01/09 11:05:37;;;;;;;6.53;1.42;;;6.60;91.50;;;;;;4979945;28;20493;-69
2023/01/09 11:08:11;;;;;;;9.25;1.73;;;6.60;91.30;;;;;;4996218;28;20027;-69
2023/01/09 11:10:45;;;;;;;10.52;1.73;;;6.60;91.10;;;;;;4997116;28;20046;-69
2023/01/09 11:13:24;;;;;;;7.53;1.60;;;6.70;91.40;;;;;;4997120;28;20323;-69
2023/01/09 11:16:06;;;;;;;10.32;1.50;;;6.60;91.20;;;;;;5004902;28;20100;-69
2023/01/09 11:18:33;;;;;;;8.13;1.83;;;6.40;91.80;;;;;;4999437;28;20049;-68
2023/01/09 11:21:13;;;;;;;6.53;2.28;;;6.40;92.60;;;;;;5016671;28;20084;-68
2023/01/09 11:23:38;;;;;;;7.55;1.80;;;6.40;92.30;;;;;;5016613;28;20032;-68
2023/01/09 11:26:04;;;;;;;7.20;1.90;;;6.40;92.30;;;;;;5016533;28;20029;-68
2023/01/09 11:28:29;;;;;;;8.02;1.90;;;6.50;92.70;;;;;;5016615;28;20029;-68
2023/01/09 11:31:00;;;;;;;5.88;1.83;;;6.50;92.50;;;;;;5016708;28;20323;-68
2023/01/09 11:33:47;;;;;;;5.60;1.95;;;6.60;92.50;;;;;;5016464;28;20041;-68
2023/01/09 11:36:14;;;;;;;9.73;1.90;;;6.60;92.30;;;;;;5015288;28;20378;-68
2023/01/09 11:38:50;;;;;;;5.18;1.27;;;6.80;92.20;;;;;;5016510;28;20057;-68
2023/01/09 11:41:22;;;;;;;8.45;1.60;;;7.00;92.50;;;;;;5016380;28;20421;-68
2023/01/09 11:43:50;;;;;;;6.10;1.40;;;7.10;91.50;;;;;;5016392;28;20026;-68
2023/01/09 11:46:36;;;;;;;8.52;1.92;;;6.90;91.10;;;;;;5016218;28;20029;-68
2023/01/09 11:49:28;;;;;;;6.63;1.75;;;7.00;92.30;;;;;;5016086;28;20117;-68
2023/01/09 11:52:16;;;;;;;9.25;2.05;;;7.20;91.00;;;;;;5015161;28;20100;-68
2023/01/09 11:54:48;;;;;;;7.47;1.42;;;7.70;89.90;;;;;;5016107;28;20026;-69
2023/01/09 11:57:14;;;;;;;7.22;1.45;;;8.10;87.70;;;;;;5016055;28;20433;-68
2023/01/09 11:59:39;;;;;;;8.23;1.83;;;8.00;87.50;;;;;;5016341;28;20030;-68
2023/01/09 12:02:24;;;;;;;8.23;1.70;;;8.20;87.90;;;;;;5016139;28;20432;-68
2023/01/09 12:05:03;;;;;;;5.40;1.55;;;8.40;87.10;;;;;;5016139;28;20040;-68
2023/01/09 12:07:40;;;;;;;10.60;1.83;;;8.70;86.10;;;;;;5014924;28;20076;-68
2023/01/09 12:10:53;;;;;;;9.48;1.58;;;8.40;86.20;;;;;;5015915;28;20065;-68
2023/01/09 12:13:36;;;;;;;7.15;1.75;;;8.10;87.50;;;;;;5012679;28;20517;-68
2023/01/09 12:16:17;;;;;;;7.57;1.83;;;7.40;89.10;;;;;;5015940;28;20030;-68
2023/01/09 12:19:10;;;;;;;6.85;1.50;;;7.30;90.20;;;;;;5015887;28;20299;-68
2023/01/09 12:22:06;;;;;;;7.60;1.90;;;7.50;89.60;;;;;;4997271;28;20032;-69
2023/01/09 12:24:58;;;;;;;5.70;1.52;;;7.90;88.90;;;;;;5015951;28;20327;-68
2023/01/09 12:27:52;;;;;;;7.78;1.65;;;7.70;89.20;;;;;;5012646;28;20029;-68
2023/01/09 12:30:33;;;;;;;8.60;2.10;;;7.50;89.70;;;;;;5014067;28;20030;-68
2023/01/09 12:33:19;;;;;;;5.35;1.80;;;7.00;91.90;;;;;;5014691;28;20113;-68
2023/01/09 12:36:08;;;;;;;8.80;1.70;;;6.40;95.00;;;;;;5012210;28;20044;-68
2023/01/09 12:38:40;;;;;;;7.43;1.83;;;6.10;96.70;;;;;;5014847;28;20026;-68
2023/01/09 12:41:21;;;;;;;9.40;1.90;;;5.80;98.00;;;;;;5015669;28;20343;-68
2023/01/09 12:44:06;;;;;;;7.43;2.58;;;5.20;98.00;;;;;;5014957;28;20025;-68
2023/01/09 12:46:42;;;;;;;4.75;1.60;;;5.00;98.00;;;;;;5015354;28;20314;-68
2023/01/09 12:50:05;;;;;;;5.82;2.05;;;4.90;98.00;;;;;;5014589;28;20033;-68
2023/01/09 12:52:45;;;;;;;5.32;1.45;;;4.90;98.00;;;;;;4934322;29;20119;-67
2023/01/09 12:55:19;;;;;;;6.28;2.25;;;5.00;98.00;;;;;;4935541;29;20429;-68
2023/01/09 12:57:50;;;;;;;7.38;1.27;;;5.10;97.60;;;;;;4995749;28;20026;-68
2023/01/09 13:00:38;;;;;;;5.05;1.60;;;5.10;98.00;;;;;;5015824;28;20018;-68
2023/01/09 13:03:33;;;;;;;4.25;1.30;;;5.20;98.00;;;;;;5004537;28;20033;-68
2023/01/09 13:06:01;;;;;;;3.58;1.45;;;5.30;98.00;;;;;;5018328;28;20022;-68
2023/01/09 13:08:52;;;;;;;3.72;1.05;;;5.30;98.00;;;;;;4999839;28;20037;-67
2023/01/09 13:11:44;;;;;;;4.68;1.40;;;5.20;98.00;;;;;;5018038;28;20077;-67
2023/01/09 13:14:20;;;;;;;4.03;1.30;;;5.10;98.00;;;;;;5010286;28;20400;-67
2023/01/09 13:16:49;;;;;;;3.50;1.35;;;5.30;98.00;;;;;;5012678;28;20102;-67
2023/01/09 13:19:36;;;;;;;3.38;1.40;;;5.50;98.00;;;;;;5018704;28;20322;-67
2023/01/09 13:22:04;;;;;;;3.80;1.00;;;5.90;98.00;;;;;;5000430;28;20022;-68
2023/01/09 13:24:44;;;;;;;2.55;1.00;;;6.10;98.00;;;;;;5025241;28;20022;-67
2023/01/09 13:27:16;;;;;;;3.22;1.10;;;6.20;98.00;;;;;;5009997;28;20031;-67
2023/01/09 13:29:45;;;;;;;2.60;1.00;;;6.30;98.00;;;;;;4982646;28;20023;-68